Time;durP1;ratioP1;P1;durP2;ratioP2;P2;SDS_P1;SDS_P2;PMS_P1;PMS_P2;Temp;Humidity;BMP_temperature;BMP_pressure;BME280_temperature;BME280_humidity;BME280_pressure;Samples;Min_cycle;Max_cycle;Signal;HPM_P1;HPM_P2
2021/07/31 00:02:24;;;;;;;;;3.75;3.75;;;;;18.93;53.37;100805.59;4754232;29;45559;-79
2021/07/31 00:04:50;;;;;;;;;3.25;3.25;;;;;18.91;53.68;100810.97;4753035;29;45459;-80
2021/07/31 00:07:18;;;;;;;;;2.50;2.50;;;;;18.80;53.62;100802.50;4882340;28;45273;-80
2021/07/31 00:09:43;;;;;;;;;2.00;2.00;;;;;18.80;53.35;100804.31;4921572;28;45586;-80
2021/07/31 00:12:09;;;;;;;;;2.50;2.50;;;;;18.81;53.37;100816.72;4921585;28;45380;-79
2021/07/31 00:14:36;;;;;;;;;2.25;2.25;;;;;18.70;52.88;100804.59;4911722;28;46898;-79
2021/07/31 00:17:06;;;;;;;;;3.25;3.25;;;;;18.67;53.56;100806.50;4938949;28;45822;-79
2021/07/31 00:19:31;;;;;;;;;3.00;1.75;;;;;18.55;53.93;100799.84;4921329;28;45360;-79
2021/07/31 00:21:57;;;;;;;;;4.00;3.00;;;;;18.65;53.78;100819.03;4921013;28;45324;-79
2021/07/31 00:24:25;;;;;;;;;2.00;2.00;;;;;18.51;53.79;100807.06;4911964;28;46917;-79
2021/07/31 00:26:50;;;;;;;;;5.00;2.00;;;;;18.57;54.32;100831.75;4937880;28;45532;-79
2021/07/31 00:29:16;;;;;;;;;3.33;2.00;;;;;18.41;53.94;100805.63;4926930;28;45478;-80
2021/07/31 00:31:41;;;;;;;;;1.00;1.00;;;;;18.48;53.98;100827.63;4933257;28;45446;-79
2021/07/31 00:34:07;;;;;;;;;3.00;2.00;;;;;18.40;54.07;100816.38;4915922;28;47309;-79
2021/07/31 00:36:32;;;;;;;;;2.25;1.75;;;;;18.34;54.41;100806.81;4922448;28;45311;-79
2021/07/31 00:38:58;;;;;;;;;2.00;2.00;;;;;18.44;54.65;100826.88;4905696;28;45332;-79
2021/07/31 00:41:24;;;;;;;;;2.25;2.25;;;;;18.39;54.46;100830.59;4905017;28;45446;-79
2021/07/31 00:43:49;;;;;;;;;4.25;3.25;;;;;18.29;54.61;100806.94;4922577;28;45303;-79
2021/07/31 00:46:16;;;;;;;;;4.75;2.00;;;;;18.39;54.88;100831.50;4905127;28;45314;-79
2021/07/31 00:48:41;;;;;;;;;2.00;2.00;;;;;18.27;54.44;100814.13;4912325;28;45377;-79
2021/07/31 00:51:10;;;;;;;;;3.25;3.25;;;;;18.26;54.39;100806.19;4908689;28;45535;-80
2021/07/31 00:53:36;;;;;;;;;2.25;2.25;;;;;18.30;54.83;100827.34;4921059;28;47125;-79
2021/07/31 00:56:01;;;;;;;;;2.50;1.25;;;;;18.26;54.98;100817.72;4934800;28;45371;-79
2021/07/31 00:58:27;;;;;;;;;3.00;2.00;;;;;18.16;55.18;100810.97;4909094;28;45479;-79
2021/07/31 01:00:53;;;;;;;;;2.50;2.50;;;;;18.17;55.21;100811.81;4928466;28;45572;-79
2021/07/31 01:03:19;;;;;;;;;3.25;3.00;;;;;18.21;55.03;100829.47;4924139;28;46452;-79
2021/07/31 01:05:44;;;;;;;;;2.75;2.75;;;;;18.04;55.41;100804.25;4924088;28;45658;-79
2021/07/31 01:08:10;;;;;;;;;3.00;3.00;;;;;18.01;55.68;100798.16;4924160;28;45349;-79
2021/07/31 01:10:36;;;;;;;;;2.00;1.00;;;;;18.11;55.67;100820.03;4941439;28;45522;-79
2021/07/31 01:13:03;;;;;;;;;3.67;3.67;;;;;18.07;55.31;100813.94;4923981;28;46990;-79
2021/07/31 01:15:29;;;;;;;;;2.00;2.00;;;;;18.11;55.72;100822.69;4924621;28;45814;-79
2021/07/31 01:17:54;;;;;;;;;2.50;2.00;;;;;17.95;56.10;100801.91;4941682;28;45338;-79
2021/07/31 01:20:23;;;;;;;;;2.00;2.00;;;;;18.10;55.76;100826.31;4923952;28;45264;-79
2021/07/31 01:22:49;;;;;;;;;2.00;2.00;;;;;18.08;56.08;100824.53;4941490;28;45251;-79
2021/07/31 01:25:14;;;;;;;;;3.00;3.00;;;;;18.08;55.72;100824.53;4923775;28;45256;-79
2021/07/31 01:27:41;;;;;;;;;1.75;1.75;;;;;17.94;56.12;100800.16;4940909;28;45245;-79
2021/07/31 01:30:08;;;;;;;;;3.00;2.00;;;;;18.01;56.47;100823.00;4923881;28;45305;-79
2021/07/31 01:32:33;;;;;;;;;4.50;3.25;;;;;18.05;56.53;100818.44;4940841;28;45532;-79
2021/07/31 01:34:59;;;;;;;;;5.25;2.50;;;;;18.03;56.55;100826.47;4924377;28;45414;-80
2021/07/31 01:37:25;;;;;;;;;4.00;4.00;;;;;17.99;56.26;100824.84;4928058;28;45478;-79
2021/07/31 01:39:50;;;;;;;;;4.50;4.50;;;;;17.93;56.50;100806.38;4945166;28;45426;-80
2021/07/31 01:42:16;;;;;;;;;2.50;2.00;;;;;18.00;56.53;100820.41;4944618;28;46405;-79
2021/07/31 01:44:42;;;;;;;;;5.00;4.00;;;;;17.89;56.68;100801.25;4927385;28;45742;-79
2021/07/31 01:47:08;;;;;;;;;2.00;2.00;;;;;17.92;56.73;100820.66;4927410;28;45475;-79
2021/07/31 01:49:33;;;;;;;;;3.25;3.25;;;;;17.92;56.57;100819.78;4944298;28;45412;-79
2021/07/31 01:51:59;;;;;;;;;4.50;4.50;;;;;17.83;56.84;100811.16;4927067;28;47407;-79
2021/07/31 01:54:25;;;;;;;;;3.00;3.00;;;;;17.80;56.90;100799.72;4944227;28;45304;-79
2021/07/31 01:56:53;;;;;;;;;4.50;4.50;;;;;17.88;56.64;100818.13;4944203;28;45318;-79
2021/07/31 01:59:18;;;;;;;;;6.25;4.00;;;;;17.90;56.76;100825.16;4942268;28;45522;-79
2021/07/31 02:01:44;;;;;;;;;3.00;3.00;;;;;17.75;57.04;100802.53;4932354;28;45453;-79
2021/07/31 02:04:09;;;;;;;;;3.00;3.00;;;;;17.81;57.06;100817.47;4926620;28;45395;-79
2021/07/31 02:06:35;;;;;;;;;6.75;4.50;;;;;17.85;57.07;100820.00;4944244;28;45430;-79
2021/07/31 02:09:01;;;;;;;;;4.25;3.50;;;;;17.83;57.30;100816.50;4943823;28;45273;-79
2021/07/31 02:11:26;;;;;;;;;4.00;3.25;;;;;17.75;57.20;100807.84;4943770;28;46233;-79
2021/07/31 02:13:52;;;;;;;;;5.00;3.75;;;;;17.70;57.40;100808.94;4926484;28;45363;-79
2021/07/31 02:16:25;;;;;;;;;3.00;3.00;;;;;17.68;57.27;100808.09;4943997;28;45355;-79
2021/07/31 02:18:51;;;;;;;;;2.00;2.00;;;;;17.76;57.01;100824.69;4942481;28;45429;-79
2021/07/31 02:21:18;;;;;;;;;2.50;2.50;;;;;17.75;56.97;100817.63;4926356;28;48275;-78
2021/07/31 02:23:43;;;;;;;;;3.75;3.75;;;;;17.75;57.45;100813.19;4926254;28;45243;-79
2021/07/31 02:26:09;;;;;;;;;2.75;2.25;;;;;17.64;57.66;100801.97;4926331;28;45259;-79
2021/07/31 02:28:34;;;;;;;;;3.00;2.00;;;;;17.59;57.89;100801.28;4926193;28;45383;-79
2021/07/31 02:31:07;;;;;;;;;3.00;2.25;;;;;17.67;57.91;100815.22;4943407;28;45222;-79
2021/07/31 02:33:32;;;;;;;;;4.00;3.00;;;;;17.54;57.82;100795.22;4926104;28;45423;-79
2021/07/31 02:36:02;;;;;;;;;5.50;4.00;;;;;17.59;58.05;100809.28;4926505;28;45515;-79
2021/07/31 02:38:28;;;;;;;;;4.25;3.50;;;;;17.46;58.14;100792.81;4926115;28;45801;-79
2021/07/31 02:40:53;;;;;;;;;3.25;3.25;;;;;17.53;58.11;100804.97;4944962;28;46164;-79
2021/07/31 02:43:19;;;;;;;;;2.50;2.50;;;;;17.51;58.11;100797.97;4929460;28;45370;-79
2021/07/31 02:45:44;;;;;;;;;2.00;2.00;;;;;17.55;58.55;100804.94;4927874;28;45507;-80
2021/07/31 02:48:12;;;;;;;;;1.00;1.00;;;;;17.55;58.45;100807.59;4943072;28;45400;-80
2021/07/31 02:50:38;;;;;;;;;4.25;3.00;;;;;17.48;58.36;100804.28;4943282;28;45283;-79
2021/07/31 02:53:03;;;;;;;;;2.75;2.50;;;;;17.51;58.60;100809.50;4926214;28;45380;-78
2021/07/31 02:55:31;;;;;;;;;4.00;3.00;;;;;17.49;58.55;100813.13;4926390;28;45197;-79
2021/07/31 02:57:57;;;;;;;;;3.50;3.50;;;;;17.42;58.56;100799.13;4925353;28;45598;-79
2021/07/31 03:00:22;;;;;;;;;3.00;2.00;;;;;17.35;59.20;100781.63;4933197;28;45223;-79
2021/07/31 03:02:48;;;;;;;;;2.50;2.50;;;;;17.31;59.20;100785.28;4922534;28;45342;-79
2021/07/31 03:05:13;;;;;;;;;5.00;3.00;;;;;17.36;59.52;100794.00;4926190;28;45491;-78
2021/07/31 03:07:39;;;;;;;;;2.50;2.00;;;;;17.24;59.22;100773.09;4942959;28;45771;-78
2021/07/31 03:10:07;;;;;;;;;3.75;3.75;;;;;17.33;59.61;100792.31;4942909;28;46105;-79
2021/07/31 03:12:33;;;;;;;;;4.00;4.00;;;;;17.31;59.50;100785.28;4941315;28;45462;-79
2021/07/31 03:14:58;;;;;;;;;4.25;4.00;;;;;17.25;59.30;100780.16;4943278;28;45491;-79
2021/07/31 03:17:24;;;;;;;;;5.00;2.50;;;;;17.33;59.62;100807.41;4925256;28;45400;-79
2021/07/31 03:19:49;;;;;;;;;3.00;3.00;;;;;17.21;59.40;100787.34;4943054;28;46304;-79
2021/07/31 03:22:15;;;;;;;;;2.75;2.25;;;;;17.16;59.84;100786.63;4925469;28;45892;-79
2021/07/31 03:24:41;;;;;;;;;6.25;3.75;;;;;17.10;59.80;100770.84;4941887;28;45399;-79
2021/07/31 03:27:06;;;;;;;;;3.75;2.75;;;;;17.18;59.73;100795.44;4925074;28;45429;-79
2021/07/31 03:29:34;;;;;;;;;3.75;3.00;;;;;17.28;59.62;100817.31;4942192;28;46348;-79
2021/07/31 03:32:00;;;;;;;;;2.00;2.00;;;;;17.18;59.70;100801.63;4942286;28;45485;-78
2021/07/31 03:34:26;;;;;;;;;1.50;1.50;;;;;17.09;59.50;100785.94;4942862;28;45444;-78
2021/07/31 03:36:52;;;;;;;;;2.75;2.75;;;;;17.23;59.88;100798.81;4924850;28;45577;-79
2021/07/31 03:39:22;;;;;;;;;3.00;2.00;;;;;17.19;59.69;100799.84;4925392;28;47104;-78
2021/07/31 03:41:50;;;;;;;;;7.00;3.00;;;;;17.04;60.28;100782.56;4942256;28;45274;-79
2021/07/31 03:44:16;;;;;;;;;2.75;2.75;;;;;17.13;60.09;100805.34;4942873;28;45318;-78
2021/07/31 03:46:46;;;;;;;;;4.00;4.00;;;;;17.07;60.40;100801.06;4942082;28;45342;-78
2021/07/31 03:49:12;;;;;;;;;3.00;3.00;;;;;16.98;60.19;100774.75;4942535;28;46480;-79
2021/07/31 03:51:38;;;;;;;;;1.50;1.50;;;;;17.00;59.92;100783.56;4942416;28;45270;-79
2021/07/31 03:54:03;;;;;;;;;3.33;2.00;;;;;17.07;60.23;100797.56;4925327;28;45462;-79
2021/07/31 03:56:29;;;;;;;;;3.00;3.00;;;;;16.99;60.64;100787.13;4942054;28;45439;-79
2021/07/31 03:58:54;;;;;;;;;6.25;4.75;;;;;17.02;60.54;100800.34;4941183;28;45659;-79
2021/07/31 04:01:27;;;;;;;;;2.00;2.00;;;;;16.95;60.16;100789.03;4912312;28;45429;-79
2021/07/31 04:03:53;;;;;;;;;3.75;3.00;;;;;17.09;60.62;100823.19;4925283;28;45348;-79
2021/07/31 04:06:19;;;;;;;;;2.00;2.00;;;;;17.02;60.39;100805.66;4941983;28;45584;-79
2021/07/31 04:08:45;;;;;;;;;2.00;2.00;;;;;16.95;60.77;100796.13;4942297;28;45864;-80
2021/07/31 04:11:11;;;;;;;;;1.50;1.50;;;;;17.09;60.91;100820.53;4924477;28;45341;-81
2021/07/31 04:14:12;;;;;;;;;4.00;3.50;;;;;17.04;60.60;100818.94;4924604;28;45436;-85
2021/07/31 04:16:38;;;;;;;;;3.00;3.00;;;;;16.91;60.48;100795.34;4930432;28;45385;-78
2021/07/31 04:19:06;;;;;;;;;2.50;2.00;;;;;17.04;61.12;100816.25;4941795;28;45196;-81
2021/07/31 04:21:34;;;;;;;;;3.50;3.50;;;;;16.99;61.07;100816.38;4942175;28;45483;-81
2021/07/31 04:23:59;;;;;;;;;2.00;2.00;;;;;17.02;61.14;100826.94;4924379;28;45455;-80
2021/07/31 04:26:27;;;;;;;;;3.50;3.50;;;;;16.88;61.17;100795.44;4924427;28;45357;-80
2021/07/31 04:32:49;;;;;;;;;;;;;;;;;;;;;
2021/07/31 04:35:32;;;;;;;;;4.25;4.25;;;;;17.04;61.25;100835.75;4881305;29;68554;-81
2021/07/31 04:38:21;;;;;;;;;5.67;4.67;;;;;16.98;61.49;100826.16;4867304;29;45287;-81
2021/07/31 04:44:15;;;;;;;;;5.00;4.75;;;;;16.90;61.58;100816.66;4837938;29;45494;-80
2021/07/31 04:46:41;;;;;;;;;4.00;4.00;;;;;17.04;61.92;100838.41;4876352;29;45341;-81
2021/07/31 04:49:06;;;;;;;;;3.50;3.50;;;;;16.97;61.73;100826.19;4877345;28;45257;-80
2021/07/31 04:51:32;;;;;;;;;7.25;5.50;;;;;16.97;61.77;100823.53;4924105;28;46399;-80
2021/07/31 04:53:57;;;;;;;;;6.75;5.50;;;;;17.02;61.93;100836.72;4941602;28;45229;-81
2021/07/31 04:56:23;;;;;;;;;2.00;2.00;;;;;17.02;62.11;100836.72;4924221;28;45170;-80
2021/07/31 04:58:48;;;;;;;;;3.75;3.75;;;;;17.05;62.45;100841.94;4924574;28;45481;-79
2021/07/31 05:01:14;;;;;;;;;3.00;2.00;;;;;16.97;61.93;100835.06;4911338;28;46662;-80
2021/07/31 05:03:40;;;;;;;;;5.00;5.00;;;;;16.99;62.14;100829.69;4924491;28;45383;-81
2021/07/31 05:06:08;;;;;;;;;4.25;4.25;;;;;16.96;62.08;100828.00;4941430;28;45459;-81
2021/07/31 05:08:34;;;;;;;;;6.00;4.00;;;;;17.11;61.94;100847.09;4924381;28;45317;-80
2021/07/31 05:11:06;;;;;;;;;4.25;2.75;;;;;16.97;61.72;100816.44;4943044;28;46425;-81
2021/07/31 05:13:31;;;;;;;;;5.00;4.00;;;;;17.20;62.05;100850.34;4945512;28;45329;-81
2021/07/31 05:15:57;;;;;;;;;4.00;3.50;;;;;17.13;61.72;100835.50;4927432;28;45532;-81
2021/07/31 05:18:22;;;;;;;;;5.00;5.00;;;;;17.19;61.62;100843.28;4927952;28;45415;-81
2021/07/31 05:20:48;;;;;;;;;3.00;3.00;;;;;17.28;61.67;100852.78;4927444;28;46268;-82
2021/07/31 05:23:15;;;;;;;;;5.25;3.75;;;;;17.25;61.82;100836.91;4945453;28;45505;-81
2021/07/31 05:25:43;;;;;;;;;4.25;3.75;;;;;17.27;61.88;100843.06;4943269;28;45515;-81
2021/07/31 05:28:09;;;;;;;;;6.00;5.33;;;;;17.19;61.89;100826.47;4945207;28;45386;-81
2021/07/31 05:30:37;;;;;;;;;3.75;3.75;;;;;17.26;61.89;100832.47;4944503;28;45442;-81
2021/07/31 05:33:03;;;;;;;;;5.00;4.00;;;;;17.31;62.19;100835.84;4927458;28;45619;-81
2021/07/31 05:35:28;;;;;;;;;4.25;3.75;;;;;17.40;61.86;100846.22;4927383;28;45473;-81
2021/07/31 05:37:56;;;;;;;;;5.67;4.00;;;;;17.43;61.88;100846.16;4927073;28;45304;-81
2021/07/31 05:40:21;;;;;;;;;4.00;4.00;;;;;17.39;61.69;100833.84;4944385;28;45413;-81
2021/07/31 05:42:47;;;;;;;;;4.00;3.00;;;;;17.40;61.55;100824.91;4926927;28;46098;-80
2021/07/31 05:45:12;;;;;;;;;4.75;3.75;;;;;17.42;61.62;100826.63;4927033;28;45229;-81
2021/07/31 05:47:38;;;;;;;;;4.50;3.50;;;;;17.40;61.45;100817.81;4944321;28;45265;-81
2021/07/31 05:50:07;;;;;;;;;5.00;5.00;;;;;17.47;61.54;100830.94;4944172;28;46158;-82
2021/07/31 05:52:36;;;;;;;;;6.00;6.00;;;;;17.54;61.69;100844.00;4927020;28;45434;-80
2021/07/31 05:55:03;;;;;;;;;7.50;5.75;;;;;17.61;61.77;100858.88;4944521;28;45248;-82
2021/07/31 05:57:29;;;;;;;;;3.50;3.00;;;;;17.56;61.71;100842.19;4926535;28;45677;-80
2021/07/31 05:59:54;;;;;;;;;3.75;3.75;;;;;17.51;61.56;100836.13;4959262;28;45496;-81
2021/07/31 06:02:22;;;;;;;;;5.50;5.50;;;;;17.61;61.50;100856.22;4933439;28;45368;-81
2021/07/31 06:04:48;;;;;;;;;6.00;6.00;;;;;17.51;61.74;100835.22;4944090;28;45363;-80
2021/07/31 06:07:13;;;;;;;;;8.00;7.25;;;;;17.58;61.52;100844.78;4931278;28;45539;-81
2021/07/31 06:09:40;;;;;;;;;5.25;3.25;;;;;17.57;61.75;100835.94;4944233;28;46093;-80
2021/07/31 06:12:08;;;;;;;;;10.75;8.00;;;;;17.78;61.63;100865.47;4943974;28;45239;-81
2021/07/31 06:14:36;;;;;;;;;5.67;3.33;;;;;17.77;61.39;100877.88;4944046;28;45506;-81
2021/07/31 06:17:02;;;;;;;;;4.75;4.00;;;;;17.64;61.63;100841.91;4925994;28;45478;-80
2021/07/31 06:19:28;;;;;;;;;3.00;1.50;;;;;17.67;61.84;100846.28;4943679;28;46638;-80
2021/07/31 06:21:53;;;;;;;;;8.25;4.00;;;;;17.70;61.40;100856.84;4925504;28;45466;-79
2021/07/31 06:24:31;;;;;;;;;3.50;3.50;;;;;17.77;61.58;100858.38;4926441;28;45356;-85
2021/07/31 06:27:45;;;;;;;;;4.25;4.25;;;;;17.82;61.63;100861.81;4958341;28;45328;-84
2021/07/31 06:30:20;;;;;;;;;4.75;4.75;;;;;17.85;61.30;100854.63;4852750;29;47252;-90
2021/07/31 06:33:03;;;;;;;;;6.00;6.00;;;;;18.00;61.47;100871.00;4839176;29;45307;-85
2021/07/31 06:35:34;;;;;;;;;5.00;4.00;;;;;17.93;60.92;100857.00;4904973;29;45307;-89
2021/07/31 06:38:13;;;;;;;;;4.00;3.25;;;;;17.93;61.15;100853.47;4889111;29;45808;-89
2021/07/31 06:40:42;;;;;;;;;7.00;5.00;;;;;18.10;61.42;100877.78;4903790;29;45615;-83
2021/07/31 06:43:10;;;;;;;;;5.00;5.00;;;;;18.22;60.87;100884.50;4902975;29;45357;-83
2021/07/31 06:45:37;;;;;;;;;8.00;6.50;;;;;18.24;60.79;100856.88;4893494;29;45418;-84
2021/07/31 06:48:03;;;;;;;;;3.75;3.75;;;;;18.40;60.19;100875.88;4897452;28;45566;-84
2021/07/31 06:50:28;;;;;;;;;4.50;4.50;;;;;18.51;60.45;100872.84;4907704;28;45373;-83
2021/07/31 06:52:54;;;;;;;;;3.33;3.33;;;;;18.51;60.04;100857.72;4889723;28;45292;-83
2021/07/31 06:55:19;;;;;;;;;6.75;5.25;;;;;18.68;59.73;100880.25;4902911;29;45223;-84
2021/07/31 06:57:45;;;;;;;;;4.00;4.00;;;;;18.70;59.26;100876.59;4886342;29;46004;-84
2021/07/31 07:00:11;;;;;;;;;4.00;4.00;;;;;18.72;59.42;100865.91;4905364;28;46153;-84
2021/07/31 07:02:36;;;;;;;;;4.75;4.75;;;;;18.85;59.00;100859.22;4900261;28;45340;-82
2021/07/31 07:05:02;;;;;;;;;7.00;6.00;;;;;18.87;58.80;100854.72;4936656;28;45259;-86
2021/07/31 07:07:27;;;;;;;;;6.00;6.00;;;;;19.07;58.80;100869.97;4946956;28;45280;-85
2021/07/31 07:09:53;;;;;;;;;8.00;7.00;;;;;19.19;58.55;100887.31;4925313;28;47381;-85
2021/07/31 07:12:18;;;;;;;;;4.25;4.25;;;;;19.20;58.23;100865.06;4942665;28;45426;-82
2021/07/31 07:14:44;;;;;;;;;4.25;4.25;;;;;19.31;57.70;100883.34;4925437;28;45503;-83
2021/07/31 07:17:09;;;;;;;;;8.75;5.25;;;;;19.36;57.38;100876.03;4924889;28;45453;-83
2021/07/31 07:19:35;;;;;;;;;6.00;6.00;;;;;19.46;57.58;100881.88;4942519;28;45340;-82
2021/07/31 07:22:00;;;;;;;;;4.33;4.00;;;;;19.52;57.30;100882.53;4925241;28;45533;-84
2021/07/31 07:24:25;;;;;;;;;3.33;3.33;;;;;19.60;56.87;100890.25;4925347;28;45259;-81
2021/07/31 07:26:51;;;;;;;;;5.67;5.67;;;;;19.74;56.76;100895.94;4942075;28;45336;-82
2021/07/31 07:29:16;;;;;;;;;7.00;5.00;;;;;19.82;56.26;100887.63;4929797;28;47864;-83
2021/07/31 07:31:42;;;;;;;;;7.50;4.50;;;;;19.81;55.89;100888.56;4951086;28;45418;-84
2021/07/31 07:34:07;;;;;;;;;5.67;4.33;;;;;19.91;55.68;100887.25;4941586;28;45497;-83
2021/07/31 07:36:35;;;;;;;;;4.75;4.50;;;;;19.93;55.95;100890.72;4924638;28;45873;-82
2021/07/31 07:39:00;;;;;;;;;5.33;4.33;;;;;19.97;55.69;100897.72;4942401;28;45275;-82
2021/07/31 07:41:26;;;;;;;;;4.33;3.67;;;;;20.03;55.42;100894.78;4924632;28;46140;-82
2021/07/31 07:43:51;;;;;;;;;4.00;3.67;;;;;20.05;55.76;100884.91;4924856;28;45310;-82
2021/07/31 07:46:17;;;;;;;;;5.50;4.75;;;;;20.13;55.46;100887.25;4924690;28;45499;-82
2021/07/31 07:48:46;;;;;;;;;5.25;4.50;;;;;20.24;55.20;100898.38;4949530;28;46678;-82
2021/07/31 07:51:12;;;;;;;;;7.25;5.25;;;;;20.23;54.97;100906.44;4945812;28;45454;-82
2021/07/31 07:53:37;;;;;;;;;5.00;5.00;;;;;20.15;55.32;100892.53;4942116;28;45439;-82
2021/07/31 07:56:03;;;;;;;;;7.50;7.50;;;;;20.10;55.08;100891.84;4941595;28;45256;-82
2021/07/31 07:58:29;;;;;;;;;3.25;3.25;;;;;20.11;55.21;100897.13;4941873;28;45958;-82
2021/07/31 08:00:55;;;;;;;;;4.00;3.33;;;;;20.13;54.91;100903.31;4954627;28;45212;-82
2021/07/31 08:03:20;;;;;;;;;4.33;3.67;;;;;20.20;55.14;100902.09;4942394;28;45359;-82
2021/07/31 08:05:46;;;;;;;;;4.25;4.00;;;;;20.23;54.94;100893.09;4941537;28;45246;-82
2021/07/31 08:08:13;;;;;;;;;5.00;4.67;;;;;20.24;54.55;100882.34;4928832;28;46990;-82
2021/07/31 08:10:39;;;;;;;;;5.00;5.00;;;;;20.27;54.47;100884.00;4941844;28;45523;-81
2021/07/31 08:13:04;;;;;;;;;4.33;3.00;;;;;20.34;54.39;100895.31;4924786;28;45875;-80
2021/07/31 08:15:30;;;;;;;;;6.00;5.00;;;;;20.40;54.21;100895.06;4940202;28;45929;-83
2021/07/31 08:17:56;;;;;;;;;8.00;7.00;;;;;20.46;54.19;100892.13;4953592;28;46386;-78
2021/07/31 08:20:22;;;;;;;;;4.33;2.67;;;;;20.52;54.04;100889.19;4941708;28;45340;-79
2021/07/31 08:22:48;;;;;;;;;4.00;4.00;;;;;20.58;54.26;100886.31;4941791;28;45475;-80
2021/07/31 08:25:13;;;;;;;;;4.00;4.00;;;;;20.74;53.23;100897.19;4941641;28;45496;-80
2021/07/31 08:27:39;;;;;;;;;5.33;4.00;;;;;20.84;53.09;100892.31;4949621;28;45477;-82
2021/07/31 08:30:07;;;;;;;;;4.33;4.33;;;;;21.01;53.16;100897.78;4946154;28;45378;-80
2021/07/31 08:32:32;;;;;;;;;5.00;4.00;;;;;21.07;52.98;100886.81;4933137;28;45304;-80
2021/07/31 08:34:57;;;;;;;;;5.00;5.00;;;;;21.19;52.58;100896.06;4941476;28;45318;-80
2021/07/31 08:37:23;;;;;;;;;5.00;4.75;;;;;21.34;52.19;100892.69;4939969;28;47085;-81
2021/07/31 08:39:48;;;;;;;;;3.33;3.33;;;;;21.38;51.88;100882.75;4942570;28;45913;-80
2021/07/31 08:42:14;;;;;;;;;4.00;4.00;;;;;21.47;51.95;100893.03;4935765;28;45505;-80
2021/07/31 08:44:42;;;;;;;;;5.00;5.00;;;;;21.53;51.66;100895.44;4923740;28;45408;-80
2021/07/31 08:47:09;;;;;;;;;4.67;4.67;;;;;21.57;51.66;100898.81;4941291;28;45375;-80
2021/07/31 08:49:37;;;;;;;;;3.67;3.00;;;;;21.59;51.44;100895.13;4952859;28;45433;-78
2021/07/31 08:52:04;;;;;;;;;4.33;4.00;;;;;21.64;51.21;100894.91;4941506;28;45253;-78
2021/07/31 08:54:30;;;;;;;;;4.67;4.33;;;;;21.67;51.03;100888.53;4940939;28;45450;-79
2021/07/31 08:56:56;;;;;;;;;4.00;4.00;;;;;21.71;51.11;100887.47;4940904;28;45585;-79
2021/07/31 08:59:31;;;;;;;;;4.00;4.00;;;;;21.75;50.73;100895.25;4921580;28;45379;-79
2021/07/31 09:01:56;;;;;;;;;5.00;5.00;;;;;21.75;51.01;100891.72;4931198;28;45275;-78
2021/07/31 09:04:23;;;;;;;;;5.00;5.00;;;;;21.75;50.65;100899.75;4940860;28;45526;-79
2021/07/31 09:06:50;;;;;;;;;5.00;4.00;;;;;21.73;49.84;100904.31;4940967;28;46365;-78
2021/07/31 09:09:25;;;;;;;;;5.00;3.33;;;;;21.70;49.92;100905.34;4940742;28;45308;-80
2021/07/31 09:12:02;;;;;;;;;3.00;3.00;;;;;21.67;49.84;100901.94;4940831;28;45229;-80
2021/07/31 09:14:32;;;;;;;;;3.67;3.67;;;;;21.76;49.56;100893.47;4940589;28;45181;-81
2021/07/31 09:16:58;;;;;;;;;3.00;3.00;;;;;21.76;50.07;100904.19;4921769;28;48273;-79
2021/07/31 09:19:28;;;;;;;;;4.25;4.25;;;;;21.77;49.85;100898.75;4940071;28;45232;-78
2021/07/31 09:22:09;;;;;;;;;3.00;3.00;;;;;21.75;49.87;100905.13;4923817;28;45349;-83
2021/07/31 09:24:41;;;;;;;;;5.00;5.00;;;;;21.70;49.52;100899.97;4936369;28;45891;-83
2021/07/31 09:27:24;;;;;;;;;4.00;3.00;;;;;21.67;50.09;100901.94;4936714;28;45453;-84
2021/07/31 09:30:01;;;;;;;;;4.00;4.00;;;;;21.77;49.68;100898.75;4940941;28;45453;-86
2021/07/31 09:32:38;;;;;;;;;3.67;3.67;;;;;21.88;49.53;100889.31;4937894;28;45379;-86
2021/07/31 09:35:18;;;;;;;;;4.00;4.00;;;;;22.15;49.19;100892.47;4940067;28;45474;-86
2021/07/31 09:37:48;;;;;;;;;5.00;4.00;;;;;22.33;48.35;100872.81;4923879;28;48596;-88
2021/07/31 09:40:14;;;;;;;;;4.33;4.33;;;;;22.52;48.14;100871.88;4939884;28;45257;-84
2021/07/31 09:42:41;;;;;;;;;1.33;1.00;;;;;22.68;48.05;100872.81;4941718;28;45231;-87
2021/07/31 09:45:15;;;;;;;;;5.50;5.00;;;;;22.69;48.06;100874.53;4923994;28;45608;-85
2021/07/31 09:47:59;;;;;;;;;3.33;3.33;;;;;22.67;47.52;100881.81;4923939;28;47856;-84
2021/07/31 09:50:49;;;;;;;;;4.75;4.75;;;;;22.53;47.87;100878.97;4920685;28;45488;-84
2021/07/31 09:53:25;;;;;;;;;3.33;3.00;;;;;22.45;47.57;100871.28;4927570;28;45335;-83
2021/07/31 09:55:55;;;;;;;;;3.67;3.67;;;;;22.43;47.75;100868.72;4939843;28;45462;-84
2021/07/31 09:58:21;;;;;;;;;3.00;3.00;;;;;22.53;47.56;100887.00;4941342;28;48195;-84
2021/07/31 10:00:53;;;;;;;;;3.00;3.00;;;;;22.50;47.27;100874.63;4920383;28;45824;-82
2021/07/31 10:03:19;;;;;;;;;3.00;3.00;;;;;22.49;47.72;100875.56;4926308;28;45320;-82
2021/07/31 10:05:45;;;;;;;;;3.33;3.33;;;;;22.51;47.57;100862.97;4942843;28;45288;-84
2021/07/31 10:08:12;;;;;;;;;3.00;3.00;;;;;22.58;47.32;100869.72;4925486;28;47419;-83
2021/07/31 10:10:38;;;;;;;;;4.67;4.67;;;;;22.62;47.38;100865.94;4943124;28;45437;-83
2021/07/31 10:13:04;;;;;;;;;3.00;3.00;;;;;22.69;47.38;100869.16;4943403;28;45279;-83
2021/07/31 10:15:30;;;;;;;;;3.00;3.00;;;;;22.80;47.04;100864.13;4943386;28;45454;-83
2021/07/31 10:17:57;;;;;;;;;4.00;3.33;;;;;22.80;46.84;100861.44;4943405;28;45844;-85
2021/07/31 10:20:23;;;;;;;;;2.00;2.00;;;;;22.88;46.27;100858.31;4945004;28;45343;-85
2021/07/31 10:22:49;;;;;;;;;3.33;3.33;;;;;22.92;46.47;100853.69;4944237;28;45513;-88
2021/07/31 10:25:16;;;;;;;;;3.00;3.00;;;;;23.15;46.34;100868.56;4926032;28;45761;-85
2021/07/31 10:27:42;;;;;;;;;3.67;2.33;;;;;23.21;46.53;100834.19;4942701;28;45499;-83
2021/07/31 10:30:23;;;;;;;;;4.67;3.67;;;;;23.42;45.92;100856.31;4909242;28;45826;-90
2021/07/31 10:32:49;;;;;;;;;3.00;3.00;;;;;23.53;45.29;100856.59;4935156;28;45429;-83
2021/07/31 10:35:24;;;;;;;;;2.00;2.00;;;;;23.58;45.19;100839.34;4925726;28;45940;-85
2021/07/31 10:37:51;;;;;;;;;3.67;2.67;;;;;23.74;44.93;100842.94;4942563;28;46072;-82
2021/07/31 10:40:40;;;;;;;;;3.67;3.67;;;;;23.91;43.99;100834.75;4942695;28;45285;-83
2021/07/31 10:43:07;;;;;;;;;2.00;2.00;;;;;24.01;43.36;100836.91;4918951;28;45518;-79
2021/07/31 10:45:33;;;;;;;;;4.00;4.00;;;;;24.10;43.64;100828.28;4928319;28;45375;-86
2021/07/31 10:47:59;;;;;;;;;2.33;2.00;;;;;24.19;42.98;100839.38;4934304;28;46649;-86
2021/07/31 10:50:28;;;;;;;;;3.33;3.33;;;;;24.22;43.44;100835.66;4921974;28;45523;-84
2021/07/31 10:53:11;;;;;;;;;3.00;3.00;;;;;24.19;43.09;100836.69;4925430;28;45412;-84
2021/07/31 10:55:36;;;;;;;;;3.00;3.00;;;;;24.16;42.70;100836.88;4925051;28;45386;-86
2021/07/31 10:58:10;;;;;;;;;2.67;2.67;;;;;24.04;43.38;100829.50;4943234;28;45481;-87
2021/07/31 11:00:40;;;;;;;;;2.67;2.67;;;;;24.02;43.13;100839.50;4944187;28;45887;-85
2021/07/31 11:03:15;;;;;;;;;2.00;2.00;;;;;23.95;42.92;100840.78;4943612;28;45462;-83
2021/07/31 11:05:58;;;;;;;;;5.00;3.67;;;;;23.93;42.93;100846.28;4942555;28;45268;-88
2021/07/31 11:08:25;;;;;;;;;3.00;2.00;;;;;23.90;43.48;100845.59;4947818;28;46313;-81
2021/07/31 11:10:55;;;;;;;;;4.00;4.00;;;;;23.79;43.26;100830.09;4925714;28;45450;-88
2021/07/31 11:13:20;;;;;;;;;4.00;4.00;;;;;23.77;43.21;100838.22;4943501;28;45434;-87
2021/07/31 11:16:04;;;;;;;;;3.67;3.67;;;;;23.69;43.12;100839.59;4929498;28;45310;-89
2021/07/31 11:18:32;;;;;;;;;3.00;3.00;;;;;23.75;43.47;100842.81;4933082;28;46026;-83
2021/07/31 11:21:14;;;;;;;;;3.00;3.00;;;;;23.90;43.48;100838.41;4943126;28;45173;-87
2021/07/31 11:23:43;;;;;;;;;3.00;3.00;;;;;24.08;43.25;100836.44;4942870;28;45398;-82
2021/07/31 11:26:09;;;;;;;;;3.33;3.33;;;;;24.24;43.14;100827.47;4924923;28;45978;-84
2021/07/31 11:28:37;;;;;;;;;2.00;2.00;;;;;24.38;42.46;100827.53;4947450;28;45494;-82
2021/07/31 11:31:16;;;;;;;;;2.67;2.67;;;;;24.60;42.15;100830.66;4948085;28;45526;-83
2021/07/31 11:33:42;;;;;;;;;2.67;2.33;;;;;24.83;41.16;100826.56;4943702;28;45366;-83
2021/07/31 11:36:13;;;;;;;;;2.67;2.67;;;;;25.07;40.85;100816.09;4942064;28;45569;-83
2021/07/31 11:38:41;;;;;;;;;3.00;3.00;;;;;25.26;39.63;100814.91;4954567;28;45389;-84